createdAt,value
2022-08-05T00:01:36.135Z,19.70
2022-08-05T00:04:16.540Z,19.70
2022-08-05T00:06:43.579Z,19.70
2022-08-05T00:09:12.892Z,19.60
2022-08-05T00:11:47.397Z,19.60
2022-08-05T00:14:16.872Z,19.60
2022-08-05T00:16:52.971Z,19.60
2022-08-05T00:19:23.470Z,19.60
2022-08-05T00:21:52.490Z,19.50
2022-08-05T00:24:24.603Z,19.40
2022-08-05T00:26:58.623Z,19.40
2022-08-05T00:29:27.609Z,19.30
2022-08-05T00:32:12.853Z,19.30
2022-08-05T00:35:03.582Z,19.30
2022-08-05T00:37:51.254Z,19.20
2022-08-05T00:40:26.991Z,19.20
2022-08-05T00:43:01.066Z,19.20
2022-08-05T00:45:38.970Z,19.10
2022-08-05T00:48:12.599Z,19.10
2022-08-05T00:50:44.236Z,19.10
2022-08-05T00:54:01.161Z,19.10
2022-08-05T00:56:05.665Z,19.00
2022-08-05T00:58:35.291Z,19.00
2022-08-05T01:01:06.050Z,18.90
2022-08-05T01:03:37.891Z,18.90
2022-08-05T01:06:05.719Z,18.80
2022-08-05T01:08:43.418Z,18.70
2022-08-05T01:11:22.191Z,18.60
2022-08-05T01:14:08.933Z,18.60
2022-08-05T01:17:02.527Z,18.50
2022-08-05T01:20:02.025Z,18.40
2022-08-05T01:23:14.567Z,18.40
2022-08-05T01:26:04.608Z,18.30
2022-08-05T01:28:45.387Z,18.30
2022-08-05T01:31:23.170Z,18.20
2022-08-05T01:34:09.766Z,18.20
2022-08-05T01:36:47.124Z,18.20
2022-08-05T01:39:45.525Z,18.20
2022-08-05T01:42:05.456Z,18.10
2022-08-05T01:44:35.475Z,18.00
2022-08-05T01:47:05.112Z,18.00
2022-08-05T01:50:00.287Z,18.00
2022-08-05T01:52:22.210Z,18.00
2022-08-05T01:54:57.993Z,17.90
2022-08-05T01:58:29.498Z,18.00
2022-08-05T02:00:19.485Z,18.00
2022-08-05T02:03:03.738Z,18.00
2022-08-05T02:05:35.974Z,17.90
2022-08-05T02:08:04.915Z,17.90
2022-08-05T02:10:40.396Z,17.90
2022-08-05T02:13:16.160Z,17.90
2022-08-05T02:16:03.015Z,17.90
2022-08-05T02:18:41.970Z,17.80
2022-08-05T02:21:22.696Z,17.90
2022-08-05T02:23:53.743Z,17.80
2022-08-05T02:26:54.598Z,17.80
2022-08-05T02:29:58.060Z,17.80
2022-08-05T02:32:23.793Z,17.80
2022-08-05T02:35:09.811Z,17.80
2022-08-05T02:37:46.553Z,17.70
2022-08-05T02:40:21.293Z,17.70
2022-08-05T02:42:52.750Z,17.60
2022-08-05T02:45:23.857Z,17.50
2022-08-05T02:48:07.458Z,17.50
2022-08-05T02:50:43.704Z,17.40
2022-08-05T02:53:16.000Z,17.30
2022-08-05T02:55:52.142Z,17.20
2022-08-05T02:58:23.194Z,17.10
2022-08-05T03:01:02.285Z,17.00
2022-08-05T03:03:34.086Z,17.00
2022-08-05T03:06:53.645Z,16.90
2022-08-05T03:09:08.087Z,16.90
2022-08-05T03:11:54.545Z,16.90
2022-08-05T03:14:22.288Z,16.80
2022-08-05T03:16:49.562Z,16.90
2022-08-05T03:19:33.941Z,16.80
2022-08-05T03:22:05.034Z,16.80
2022-08-05T03:24:46.912Z,16.80
2022-08-05T03:27:15.906Z,16.80
2022-08-05T03:29:45.283Z,16.80
2022-08-05T03:32:31.454Z,16.80
2022-08-05T03:34:59.436Z,16.90
2022-08-05T03:37:27.849Z,17.00
2022-08-05T03:40:01.436Z,17.20
2022-08-05T03:42:32.886Z,17.20
2022-08-05T03:45:21.489Z,17.20
2022-08-05T03:47:50.173Z,17.20
2022-08-05T03:50:18.040Z,17.20
2022-08-05T03:55:53.360Z,17.30
2022-08-05T03:56:11.648Z,17.30
2022-08-05T03:58:41.143Z,17.40
2022-08-05T04:01:11.272Z,17.40
2022-08-05T04:03:42.434Z,17.50
2022-08-05T04:06:31.027Z,17.60
2022-08-05T04:08:59.275Z,17.70
2022-08-05T04:11:42.571Z,17.80
2022-08-05T04:14:17.888Z,17.90
2022-08-05T04:16:45.613Z,17.90
2022-08-05T04:19:13.422Z,18.00
2022-08-05T04:22:05.259Z,18.20
2022-08-05T04:24:28.537Z,18.30
2022-08-05T04:26:58.196Z,18.40
2022-08-05T04:29:25.233Z,18.50
2022-08-05T04:31:54.241Z,18.60
2022-08-05T04:34:32.454Z,18.80
2022-08-05T04:37:00.184Z,18.90
2022-08-05T04:39:28.043Z,19.00
2022-08-05T04:41:55.420Z,19.10
2022-08-05T04:44:29.449Z,19.20
2022-08-05T04:47:09.458Z,19.20
2022-08-05T04:50:01.588Z,19.40
2022-08-05T04:52:28.495Z,19.50
2022-08-05T04:54:56.943Z,19.70
2022-08-05T04:57:28.987Z,19.80
2022-08-05T04:59:58.625Z,19.90
2022-08-05T05:02:36.105Z,20.00
2022-08-05T05:05:26.185Z,20.10
2022-08-05T05:08:01.720Z,20.20
2022-08-05T05:10:30.820Z,20.30
2022-08-05T05:13:00.580Z,20.40
2022-08-05T05:15:59.166Z,20.50
2022-08-05T05:18:28.214Z,20.70
2022-08-05T05:20:55.889Z,20.80
2022-08-05T05:23:25.516Z,20.90
2022-08-05T05:25:52.470Z,21.00
2022-08-05T05:28:19.860Z,21.20
2022-08-05T05:30:49.828Z,21.30
2022-08-05T05:33:17.523Z,21.40
2022-08-05T05:35:47.502Z,21.50
2022-08-05T05:38:22.171Z,21.70
2022-08-05T05:40:51.560Z,21.90
2022-08-05T05:43:57.524Z,22.10
2022-08-05T05:46:17.246Z,22.20
2022-08-05T05:48:46.331Z,22.40
2022-08-05T05:51:27.866Z,22.60
2022-08-05T05:53:59.485Z,22.80
2022-08-05T05:56:34.466Z,23.00
2022-08-05T05:59:05.656Z,23.30
2022-08-05T06:01:37.136Z,23.50
2022-08-05T06:04:11.945Z,23.60
2022-08-05T06:06:47.549Z,23.70
2022-08-05T06:09:26.530Z,24.00
2022-08-05T06:12:05.356Z,24.20
2022-08-05T06:14:33.319Z,24.30
2022-08-05T06:17:22.346Z,24.60
2022-08-05T06:19:57.080Z,25.00
2022-08-05T06:22:33.765Z,25.60
2022-08-05T06:25:25.084Z,25.70
2022-08-05T06:28:10.965Z,26.10
2022-08-05T06:30:36.863Z,26.30
2022-08-05T06:33:03.816Z,26.80
2022-08-05T06:36:03.715Z,27.30
2022-08-05T06:38:18.112Z,27.50
2022-08-05T06:41:03.702Z,28.00
2022-08-05T06:43:57.576Z,28.40
2022-08-05T06:46:18.205Z,28.80
2022-08-05T06:48:55.816Z,29.20
2022-08-05T06:51:30.044Z,29.40
2022-08-05T06:53:59.894Z,29.50
2022-08-05T06:56:28.158Z,29.90
2022-08-05T06:58:55.553Z,29.90
2022-08-05T07:01:27.482Z,30.10
2022-08-05T07:03:58.822Z,30.90
2022-08-05T07:06:35.257Z,31.20
2022-08-05T07:09:03.730Z,31.80
2022-08-05T07:11:37.164Z,31.70
2022-08-05T07:14:29.269Z,32.50
2022-08-05T07:18:02.047Z,33.20
2022-08-05T07:22:41.946Z,34.00
2022-08-05T07:25:53.829Z,34.70
2022-08-05T07:28:03.825Z,34.90
2022-08-05T07:30:38.280Z,34.90
2022-08-05T07:33:15.498Z,34.90
2022-08-05T07:36:03.519Z,35.20
2022-08-05T07:38:33.271Z,35.10
2022-08-05T07:42:08.399Z,35.10
2022-08-05T07:43:59.802Z,35.80
2022-08-05T07:46:28.695Z,36.80
2022-08-05T07:49:02.529Z,37.30
2022-08-05T07:51:37.195Z,37.30
2022-08-05T07:54:08.484Z,36.70
2022-08-05T07:57:00.759Z,36.60
2022-08-05T07:59:38.967Z,37.00
2022-08-05T08:02:10.635Z,37.00
2022-08-05T08:18:50.220Z,37.60
2022-08-05T08:21:17.962Z,37.30
2022-08-05T08:24:01.238Z,37.80
2022-08-05T08:26:32.223Z,38.50
2022-08-05T10:01:02.198Z,39.60
2022-08-05T10:26:05.690Z,42.60
2022-08-05T10:28:36.597Z,38.80
2022-08-05T10:32:50.500Z,37.60
2022-08-05T10:33:54.218Z,36.90
2022-08-05T10:36:23.575Z,35.40
2022-08-05T10:39:10.090Z,34.60
2022-08-05T10:42:02.287Z,34.30
2022-08-05T10:44:32.163Z,34.00
2022-08-05T10:47:10.174Z,33.60
2022-08-05T10:50:31.961Z,33.30
2022-08-05T10:52:54.009Z,33.00
2022-08-05T10:55:26.737Z,32.70
2022-08-05T10:58:21.328Z,32.50
2022-08-05T11:00:55.343Z,32.30
2022-08-05T11:03:30.286Z,32.20
2022-08-05T11:06:16.135Z,32.10
2022-08-05T11:20:47.430Z,31.90
2022-08-05T11:24:14.747Z,31.40
2022-08-05T11:27:29.202Z,31.40
2022-08-05T11:30:16.377Z,31.40
2022-08-05T11:32:43.301Z,31.40
2022-08-05T11:36:07.992Z,31.30
2022-08-05T11:38:45.997Z,31.30
2022-08-05T11:41:56.223Z,31.20
2022-08-05T11:44:12.806Z,31.30
2022-08-05T11:47:14.061Z,31.30
2022-08-05T11:49:49.700Z,31.20
2022-08-05T11:52:29.323Z,31.10
2022-08-05T11:54:58.818Z,31.10
2022-08-05T11:58:08.579Z,31.10
2022-08-05T12:00:30.232Z,31.10
2022-08-05T12:02:57.977Z,31.10
2022-08-05T12:05:36.368Z,31.10
2022-08-05T12:08:09.864Z,31.20
2022-08-05T12:10:45.411Z,31.30
2022-08-05T12:13:28.130Z,31.50
2022-08-05T12:16:14.149Z,31.50
2022-08-05T12:18:48.663Z,31.50
2022-08-05T12:21:26.769Z,31.50
2022-08-05T12:24:08.001Z,31.50
2022-08-05T12:26:37.963Z,31.60
2022-08-05T12:29:17.859Z,31.70
2022-08-05T12:31:55.572Z,31.70
2022-08-05T12:34:28.565Z,31.70
2022-08-05T12:36:58.203Z,31.70
2022-08-05T12:39:34.634Z,31.60
2022-08-05T12:42:17.256Z,31.60
2022-08-05T12:44:45.335Z,31.70
2022-08-05T12:47:17.277Z,31.70
2022-08-05T12:50:04.719Z,31.60
2022-08-05T12:52:42.497Z,31.60
2022-08-05T12:55:23.878Z,31.50
2022-08-05T12:58:38.804Z,31.40
2022-08-05T13:02:02.287Z,31.30
2022-08-05T13:03:32.523Z,31.30
2022-08-05T13:06:01.377Z,31.40
2022-08-05T13:08:32.271Z,31.40
2022-08-05T13:11:02.271Z,31.50
2022-08-05T13:14:06.342Z,31.60
2022-08-05T13:16:19.644Z,31.80
2022-08-05T13:18:58.674Z,31.90
2022-08-05T13:21:27.870Z,31.90
2022-08-05T13:24:05.811Z,31.90
2022-08-05T13:26:36.838Z,31.90
2022-08-05T13:29:05.183Z,32.10
2022-08-05T13:32:03.766Z,32.10
2022-08-05T13:34:25.997Z,32.00
2022-08-05T13:36:54.011Z,32.10
2022-08-05T13:40:13.682Z,32.10
2022-08-05T13:42:14.434Z,31.90
2022-08-05T13:44:46.375Z,31.80
2022-08-05T13:47:35.230Z,31.70
2022-08-05T13:50:06.440Z,31.60
2022-08-05T13:52:36.723Z,31.60
2022-08-05T13:55:07.656Z,31.60
2022-08-05T13:57:51.184Z,31.60
2022-08-05T14:00:26.825Z,31.70
2022-08-05T14:02:56.987Z,31.80
2022-08-05T14:05:48.253Z,32.60
2022-08-05T14:08:21.421Z,34.40
2022-08-05T14:11:03.282Z,37.30
2022-08-05T14:13:42.165Z,39.50
2022-08-05T14:16:11.648Z,41.10
2022-08-05T14:18:44.072Z,41.90
2022-08-05T14:22:08.427Z,42.70
2022-08-05T14:23:58.332Z,43.00
2022-08-05T14:26:35.805Z,43.50
2022-08-05T14:29:16.018Z,43.20
2022-08-05T14:32:02.356Z,43.10
2022-08-05T14:34:35.668Z,43.20
2022-08-05T14:37:04.506Z,43.50
2022-08-05T14:39:49.821Z,43.40
2022-08-05T14:42:21.758Z,43.60
2022-08-05T14:44:49.428Z,43.40
2022-08-05T14:47:16.974Z,42.90
2022-08-05T14:50:15.644Z,42.40
2022-08-05T14:52:53.196Z,42.30
2022-08-05T14:55:38.768Z,41.90
2022-08-05T14:58:10.956Z,41.70
2022-08-05T15:00:39.580Z,42.00
2022-08-05T15:03:26.316Z,41.50
2022-08-05T15:06:07.784Z,41.00
2022-08-05T15:08:59.517Z,40.20
2022-08-05T15:11:51.507Z,38.80
2022-08-05T15:14:33.964Z,37.40
2022-08-05T15:17:03.767Z,36.20
2022-08-05T15:19:31.385Z,35.10
2022-08-05T15:22:01.191Z,34.60
2022-08-05T15:24:29.612Z,34.40
2022-08-05T15:26:57.756Z,33.90
2022-08-05T15:29:30.325Z,33.30
2022-08-05T15:32:02.211Z,32.90
2022-08-05T15:34:33.197Z,32.50
2022-08-05T15:37:06.530Z,32.20
2022-08-05T15:41:01.106Z,32.00
2022-08-05T15:42:58.254Z,31.80
2022-08-05T15:45:15.992Z,31.60
2022-08-05T15:47:44.378Z,31.50
2022-08-05T15:50:15.328Z,31.40
2022-08-05T15:52:52.642Z,31.40
2022-08-05T15:55:25.008Z,31.30
2022-08-05T15:58:16.869Z,31.40
2022-08-05T16:01:03.492Z,31.40
2022-08-05T16:03:33.843Z,31.30
2022-08-05T16:06:02.271Z,31.30
2022-08-05T16:08:30.413Z,31.20
2022-08-05T16:10:58.697Z,31.10
2022-08-05T16:13:34.486Z,31.10
2022-08-05T16:16:03.295Z,31.10
2022-08-05T16:18:32.962Z,31.00
2022-08-05T16:21:04.374Z,31.00
2022-08-05T16:23:53.334Z,31.00
2022-08-05T16:26:26.297Z,30.90
2022-08-05T16:28:54.823Z,30.90
2022-08-05T16:31:22.566Z,30.80
2022-08-05T16:33:52.175Z,30.80
2022-08-05T16:36:23.879Z,30.70
2022-08-05T16:38:54.931Z,30.70
2022-08-05T16:42:14.654Z,30.60
2022-08-05T16:44:11.995Z,30.60
2022-08-05T16:46:41.070Z,30.40
2022-08-05T16:49:10.000Z,30.40
2022-08-05T16:51:42.916Z,30.20
2022-08-05T16:54:25.811Z,30.20
2022-08-05T16:56:56.049Z,30.20
2022-08-05T16:59:23.322Z,30.10
2022-08-05T17:01:54.063Z,30.00
2022-08-05T17:04:27.345Z,30.00
2022-08-05T17:06:56.879Z,30.00
2022-08-05T17:09:25.169Z,29.90
2022-08-05T17:11:59.282Z,29.90
2022-08-05T17:14:36.919Z,29.80
2022-08-05T17:17:06.124Z,29.80
2022-08-05T17:19:33.872Z,29.70
2022-08-05T17:22:01.342Z,29.60
2022-08-05T17:24:38.514Z,29.60
2022-08-05T17:27:09.463Z,29.50
2022-08-05T17:29:40.782Z,29.30
2022-08-05T17:32:17.178Z,29.30
2022-08-05T17:34:49.087Z,29.30
2022-08-05T17:37:39.377Z,29.20
2022-08-05T17:40:12.418Z,29.10
2022-08-05T17:42:49.873Z,29.10
2022-08-05T17:45:20.596Z,29.00
2022-08-05T17:47:53.879Z,28.90
2022-08-05T17:50:28.654Z,28.70
2022-08-05T17:53:02.036Z,28.60
2022-08-05T17:55:38.045Z,28.50
2022-08-05T17:58:12.648Z,28.40
2022-08-05T18:00:47.719Z,28.20
2022-08-05T18:03:58.678Z,28.10
2022-08-05T18:06:12.160Z,27.90
2022-08-05T18:08:46.172Z,27.80
2022-08-05T18:11:23.831Z,27.60
2022-08-05T18:14:07.134Z,27.50
2022-08-05T18:16:51.205Z,27.40
2022-08-05T18:19:22.484Z,27.30
2022-08-05T18:22:08.286Z,27.20
2022-08-05T18:24:36.682Z,27.10
2022-08-05T18:27:04.006Z,26.90
2022-08-05T18:29:40.999Z,26.80
2022-08-05T18:32:12.715Z,26.50
2022-08-05T18:34:43.318Z,26.50
2022-08-05T18:37:12.570Z,26.40
2022-08-05T18:40:33.715Z,26.40
2022-08-05T18:42:30.968Z,26.30
2022-08-05T18:44:57.910Z,26.20
2022-08-05T18:47:27.123Z,26.10
2022-08-05T18:50:15.761Z,26.00
2022-08-05T18:52:50.734Z,25.90
2022-08-05T18:55:20.174Z,25.70
2022-08-05T18:57:52.854Z,25.60
2022-08-05T19:00:27.232Z,25.50
2022-08-05T19:02:56.961Z,25.50
2022-08-05T19:06:13.003Z,25.50
2022-08-05T19:08:12.109Z,25.40
2022-08-05T19:10:41.174Z,25.30
2022-08-05T19:13:12.260Z,25.30
2022-08-05T19:15:57.389Z,25.20
2022-08-05T19:18:27.588Z,25.10
2022-08-05T19:20:55.792Z,25.10
2022-08-05T19:24:06.902Z,25.00
2022-08-05T19:26:11.374Z,24.90
2022-08-05T19:28:42.407Z,24.90
2022-08-05T19:31:13.122Z,24.80
2022-08-05T19:33:48.722Z,24.80
2022-08-05T19:36:29.399Z,24.70
2022-08-05T19:38:58.863Z,24.70
2022-08-05T19:41:58.557Z,24.70
2022-08-05T19:44:19.004Z,24.60
2022-08-05T19:46:46.660Z,24.70
2022-08-05T19:49:17.094Z,24.60
2022-08-05T19:52:08.741Z,24.70
2022-08-05T19:54:34.979Z,24.60
2022-08-05T19:57:06.460Z,24.50
2022-08-05T19:59:54.727Z,24.50
2022-08-05T20:02:27.981Z,24.40
2022-08-05T20:04:58.726Z,24.40
2022-08-05T20:07:46.022Z,24.30
2022-08-05T20:10:14.810Z,24.20
2022-08-05T20:12:47.568Z,24.10
2022-08-05T20:15:48.529Z,23.90
2022-08-05T20:18:10.723Z,23.70
2022-08-05T20:20:56.849Z,23.50
2022-08-05T20:23:40.737Z,23.40
2022-08-05T20:26:16.192Z,23.20
2022-08-05T20:28:50.804Z,23.20
2022-08-05T20:31:21.653Z,23.30
2022-08-05T20:33:55.812Z,23.40
2022-08-05T20:36:24.215Z,23.50
2022-08-05T20:38:53.695Z,23.80
2022-08-05T20:41:27.467Z,23.90
2022-08-05T20:44:17.074Z,24.00
2022-08-05T20:46:48.090Z,24.10
2022-08-05T20:49:15.348Z,24.10
2022-08-05T20:51:53.758Z,24.10
2022-08-05T20:54:21.485Z,24.10
2022-08-05T20:56:48.982Z,24.10
2022-08-05T20:59:26.511Z,24.10
2022-08-05T21:01:57.293Z,24.10
2022-08-05T21:04:26.849Z,24.10
2022-08-05T21:06:55.075Z,24.00
2022-08-05T21:09:22.890Z,24.00
2022-08-05T21:12:07.621Z,23.90
2022-08-05T21:14:38.094Z,23.90
2022-08-05T21:17:06.023Z,23.90
2022-08-05T21:19:46.864Z,23.80
2022-08-05T21:22:21.865Z,23.70
2022-08-05T21:24:52.399Z,23.70
2022-08-05T21:27:25.295Z,23.60
2022-08-05T21:29:55.492Z,23.50
2022-08-05T21:32:27.919Z,23.40
2022-08-05T21:35:08.851Z,23.40
2022-08-05T21:37:47.601Z,23.30
2022-08-05T21:40:21.919Z,23.20
2022-08-05T21:42:52.040Z,23.20
2022-08-05T21:45:24.076Z,23.10
2022-08-05T21:47:55.985Z,23.10
2022-08-05T21:50:25.630Z,23.10
2022-08-05T21:52:53.329Z,23.10
2022-08-05T21:56:01.519Z,23.20
2022-08-05T21:58:10.338Z,23.20
2022-08-05T22:00:40.124Z,23.20
2022-08-05T22:03:09.756Z,23.30
2022-08-05T22:05:48.762Z,23.30
2022-08-05T22:08:22.066Z,23.40
2022-08-05T22:10:51.567Z,23.40
2022-08-05T22:14:19.920Z,23.40
2022-08-05T22:16:32.320Z,23.40
2022-08-05T22:18:58.689Z,23.40
2022-08-05T22:21:26.131Z,23.40
2022-08-05T22:24:13.224Z,23.40
2022-08-05T22:28:08.219Z,23.40
2022-08-05T22:30:21.553Z,23.40
2022-08-05T22:32:50.715Z,23.30
2022-08-05T22:35:22.284Z,23.20
2022-08-05T22:37:58.515Z,23.30
2022-08-05T22:40:26.994Z,23.20
2022-08-05T22:42:58.395Z,23.30
2022-08-05T22:45:26.559Z,23.30
2022-08-05T22:47:57.305Z,23.30
2022-08-05T22:50:27.705Z,23.30
2022-08-05T22:52:55.756Z,23.30
2022-08-05T22:55:24.013Z,23.30
2022-08-05T22:57:53.995Z,23.40
2022-08-05T23:00:23.333Z,23.40
2022-08-05T23:02:53.302Z,23.40
2022-08-05T23:05:22.385Z,23.40
2022-08-05T23:07:51.228Z,23.30
2022-08-05T23:10:24.030Z,23.30
2022-08-05T23:12:54.701Z,23.20
2022-08-05T23:15:29.444Z,23.20
2022-08-05T23:18:00.970Z,23.10
2022-08-05T23:20:37.225Z,23.00
2022-08-05T23:23:08.688Z,23.00
2022-08-05T23:25:51.258Z,22.90
2022-08-05T23:28:27.655Z,22.80
2022-08-05T23:31:16.118Z,22.80
2022-08-05T23:34:04.760Z,22.70
2022-08-05T23:36:39.857Z,22.60
2022-08-05T23:39:17.640Z,22.60
2022-08-05T23:41:59.540Z,22.60
2022-08-05T23:44:31.421Z,22.50
2022-08-05T23:46:59.990Z,22.50
2022-08-05T23:49:34.069Z,22.40
2022-08-05T23:52:21.972Z,22.40
2022-08-05T23:55:05.292Z,22.40
2022-08-05T23:57:34.419Z,22.30
